sensor_id;sensor_type;location;lat;lon;timestamp;temperature;humidity
21108;DHT22;10712;52.944;9.098;2022-11-20T00:01:16;0.20;89.80
21108;DHT22;10712;52.944;9.098;2022-11-20T00:03:45;0.20;89.80
21108;DHT22;10712;52.944;9.098;2022-11-20T00:06:15;0.20;89.90
21108;DHT22;10712;52.944;9.098;2022-11-20T00:08:43;0.20;89.80
21108;DHT22;10712;52.944;9.098;2022-11-20T00:11:14;0.20;89.70
21108;DHT22;10712;52.944;9.098;2022-11-20T00:13:43;0.20;89.80
21108;DHT22;10712;52.944;9.098;2022-11-20T00:16:11;0.30;89.80
21108;DHT22;10712;52.944;9.098;2022-11-20T00:18:38;0.30;89.70
21108;DHT22;10712;52.944;9.098;2022-11-20T00:21:12;0.30;89.60
21108;DHT22;10712;52.944;9.098;2022-11-20T00:23:44;0.30;89.60
21108;DHT22;10712;52.944;9.098;2022-11-20T00:26:15;0.30;89.70
21108;DHT22;10712;52.944;9.098;2022-11-20T00:28:49;0.40;89.60
21108;DHT22;10712;52.944;9.098;2022-11-20T00:31:17;0.40;89.60
21108;DHT22;10712;52.944;9.098;2022-11-20T00:33:44;0.40;89.50
21108;DHT22;10712;52.944;9.098;2022-11-20T00:36:13;0.40;89.50
21108;DHT22;10712;52.944;9.098;2022-11-20T00:38:42;0.40;89.50
21108;DHT22;10712;52.944;9.098;2022-11-20T00:41:12;0.40;89.40
21108;DHT22;10712;52.944;9.098;2022-11-20T00:43:41;0.40;89.40
21108;DHT22;10712;52.944;9.098;2022-11-20T00:48:37;0.40;89.60
21108;DHT22;10712;52.944;9.098;2022-11-20T00:51:04;0.40;89.70
21108;DHT22;10712;52.944;9.098;2022-11-20T00:53:30;0.40;89.70
21108;DHT22;10712;52.944;9.098;2022-11-20T00:55:58;0.40;89.70
21108;DHT22;10712;52.944;9.098;2022-11-20T00:58:28;0.50;89.80
21108;DHT22;10712;52.944;9.098;2022-11-20T01:01:04;0.50;89.80
21108;DHT22;10712;52.944;9.098;2022-11-20T01:03:36;0.50;89.70
21108;DHT22;10712;52.944;9.098;2022-11-20T01:06:06;0.50;89.70
21108;DHT22;10712;52.944;9.098;2022-11-20T01:08:35;0.50;89.70
21108;DHT22;10712;52.944;9.098;2022-11-20T01:11:08;0.50;89.60
21108;DHT22;10712;52.944;9.098;2022-11-20T01:13:37;0.60;89.60
21108;DHT22;10712;52.944;9.098;2022-11-20T01:18:32;0.60;89.60
21108;DHT22;10712;52.944;9.098;2022-11-20T01:21:15;0.60;89.60
21108;DHT22;10712;52.944;9.098;2022-11-20T01:23:44;0.60;89.50
21108;DHT22;10712;52.944;9.098;2022-11-20T01:26:12;0.60;89.60
21108;DHT22;10712;52.944;9.098;2022-11-20T01:28:41;0.60;89.70
21108;DHT22;10712;52.944;9.098;2022-11-20T01:33:45;0.60;89.70
21108;DHT22;10712;52.944;9.098;2022-11-20T01:36:14;0.70;89.70
21108;DHT22;10712;52.944;9.098;2022-11-20T01:38:41;0.70;89.70
21108;DHT22;10712;52.944;9.098;2022-11-20T01:41:08;0.70;89.60
21108;DHT22;10712;52.944;9.098;2022-11-20T01:43:35;0.70;89.60
21108;DHT22;10712;52.944;9.098;2022-11-20T01:46:17;0.70;89.60
21108;DHT22;10712;52.944;9.098;2022-11-20T01:49:04;0.70;89.60
21108;DHT22;10712;52.944;9.098;2022-11-20T01:51:45;0.70;89.40
21108;DHT22;10712;52.944;9.098;2022-11-20T01:54:21;0.70;89.40
21108;DHT22;10712;52.944;9.098;2022-11-20T01:56:57;0.70;89.50
21108;DHT22;10712;52.944;9.098;2022-11-20T01:59:26;0.70;89.60
21108;DHT22;10712;52.944;9.098;2022-11-20T02:01:54;0.70;89.50
21108;DHT22;10712;52.944;9.098;2022-11-20T02:04:22;0.70;89.40
21108;DHT22;10712;52.944;9.098;2022-11-20T02:06:54;0.70;89.50
21108;DHT22;10712;52.944;9.098;2022-11-20T02:09:24;0.70;89.60
21108;DHT22;10712;52.944;9.098;2022-11-20T02:11:50;0.70;89.90
21108;DHT22;10712;52.944;9.098;2022-11-20T02:14:17;0.70;90.00
21108;DHT22;10712;52.944;9.098;2022-11-20T02:16:47;0.70;90.00
21108;DHT22;10712;52.944;9.098;2022-11-20T02:19:25;0.70;90.00
21108;DHT22;10712;52.944;9.098;2022-11-20T02:22:10;0.70;90.10
21108;DHT22;10712;52.944;9.098;2022-11-20T02:24:43;0.70;90.10
21108;DHT22;10712;52.944;9.098;2022-11-20T02:27:13;0.60;90.30
21108;DHT22;10712;52.944;9.098;2022-11-20T02:29:55;0.60;90.40
21108;DHT22;10712;52.944;9.098;2022-11-20T02:32:30;0.60;90.70
21108;DHT22;10712;52.944;9.098;2022-11-20T02:35:06;0.60;90.80
21108;DHT22;10712;52.944;9.098;2022-11-20T02:37:36;0.70;90.90
21108;DHT22;10712;52.944;9.098;2022-11-20T02:40:04;0.70;91.00
21108;DHT22;10712;52.944;9.098;2022-11-20T02:42:30;0.70;91.00
21108;DHT22;10712;52.944;9.098;2022-11-20T02:44:56;0.70;91.00
21108;DHT22;10712;52.944;9.098;2022-11-20T02:47:22;0.70;91.10
21108;DHT22;10712;52.944;9.098;2022-11-20T02:49:47;0.70;91.10
21108;DHT22;10712;52.944;9.098;2022-11-20T02:52:13;0.70;91.20
21108;DHT22;10712;52.944;9.098;2022-11-20T02:54:39;0.70;91.30
21108;DHT22;10712;52.944;9.098;2022-11-20T02:57:04;0.70;91.40
21108;DHT22;10712;52.944;9.098;2022-11-20T02:59:30;0.70;91.40
21108;DHT22;10712;52.944;9.098;2022-11-20T03:01:56;0.70;91.30
21108;DHT22;10712;52.944;9.098;2022-11-20T03:04:22;0.70;91.30
21108;DHT22;10712;52.944;9.098;2022-11-20T03:06:48;0.70;91.30
21108;DHT22;10712;52.944;9.098;2022-11-20T03:09:13;0.70;91.40
21108;DHT22;10712;52.944;9.098;2022-11-20T03:11:39;0.70;91.40
21108;DHT22;10712;52.944;9.098;2022-11-20T03:14:05;0.70;91.30
21108;DHT22;10712;52.944;9.098;2022-11-20T03:16:32;0.80;91.40
21108;DHT22;10712;52.944;9.098;2022-11-20T03:18:58;0.80;91.40
21108;DHT22;10712;52.944;9.098;2022-11-20T03:21:24;0.70;91.30
21108;DHT22;10712;52.944;9.098;2022-11-20T03:23:50;0.70;91.30
21108;DHT22;10712;52.944;9.098;2022-11-20T03:26:20;0.80;91.40
21108;DHT22;10712;52.944;9.098;2022-11-20T03:28:53;0.70;91.40
21108;DHT22;10712;52.944;9.098;2022-11-20T03:31:23;0.70;91.40
21108;DHT22;10712;52.944;9.098;2022-11-20T03:33:51;0.70;91.30
21108;DHT22;10712;52.944;9.098;2022-11-20T03:36:18;0.70;91.30
21108;DHT22;10712;52.944;9.098;2022-11-20T03:38:45;0.70;91.20
21108;DHT22;10712;52.944;9.098;2022-11-20T03:41:15;0.70;91.30
21108;DHT22;10712;52.944;9.098;2022-11-20T03:43:59;0.70;91.30
21108;DHT22;10712;52.944;9.098;2022-11-20T03:46:27;0.70;91.60
21108;DHT22;10712;52.944;9.098;2022-11-20T03:48:54;0.80;91.70
21108;DHT22;10712;52.944;9.098;2022-11-20T03:51:28;0.80;91.70
21108;DHT22;10712;52.944;9.098;2022-11-20T03:53:58;0.80;91.60
21108;DHT22;10712;52.944;9.098;2022-11-20T03:56:28;0.80;91.60
21108;DHT22;10712;52.944;9.098;2022-11-20T03:58:56;0.80;91.40
21108;DHT22;10712;52.944;9.098;2022-11-20T04:01:29;0.80;91.40
21108;DHT22;10712;52.944;9.098;2022-11-20T04:03:56;0.80;91.50
21108;DHT22;10712;52.944;9.098;2022-11-20T04:06:27;0.80;91.60
21108;DHT22;10712;52.944;9.098;2022-11-20T04:08:59;0.80;91.60
21108;DHT22;10712;52.944;9.098;2022-11-20T04:11:28;0.80;91.60
21108;DHT22;10712;52.944;9.098;2022-11-20T04:14:00;0.90;91.60
21108;DHT22;10712;52.944;9.098;2022-11-20T04:16:33;0.90;91.50
21108;DHT22;10712;52.944;9.098;2022-11-20T04:19:02;0.90;91.40
21108;DHT22;10712;52.944;9.098;2022-11-20T04:21:29;0.90;91.40
21108;DHT22;10712;52.944;9.098;2022-11-20T04:23:57;0.90;91.40
21108;DHT22;10712;52.944;9.098;2022-11-20T04:26:26;0.90;91.30
21108;DHT22;10712;52.944;9.098;2022-11-20T04:28:53;0.90;91.30
21108;DHT22;10712;52.944;9.098;2022-11-20T04:31:23;1.00;91.20
21108;DHT22;10712;52.944;9.098;2022-11-20T04:33:54;1.00;91.00
21108;DHT22;10712;52.944;9.098;2022-11-20T04:36:25;1.00;90.90
21108;DHT22;10712;52.944;9.098;2022-11-20T04:39:03;1.00;91.00
21108;DHT22;10712;52.944;9.098;2022-11-20T04:41:34;1.00;90.90
21108;DHT22;10712;52.944;9.098;2022-11-20T04:44:02;1.00;90.80
21108;DHT22;10712;52.944;9.098;2022-11-20T04:46:31;1.00;90.80
21108;DHT22;10712;52.944;9.098;2022-11-20T04:49:02;1.00;90.80
21108;DHT22;10712;52.944;9.098;2022-11-20T04:51:29;1.00;90.90
21108;DHT22;10712;52.944;9.098;2022-11-20T04:53:55;1.00;90.90
21108;DHT22;10712;52.944;9.098;2022-11-20T04:56:22;1.00;90.60
21108;DHT22;10712;52.944;9.098;2022-11-20T04:58:48;0.90;90.60
21108;DHT22;10712;52.944;9.098;2022-11-20T05:01:19;0.90;90.80
21108;DHT22;10712;52.944;9.098;2022-11-20T05:03:48;0.90;90.90
21108;DHT22;10712;52.944;9.098;2022-11-20T05:06:16;1.00;91.00
21108;DHT22;10712;52.944;9.098;2022-11-20T05:08:43;0.90;91.00
21108;DHT22;10712;52.944;9.098;2022-11-20T05:11:14;1.00;91.20
21108;DHT22;10712;52.944;9.098;2022-11-20T05:13:42;1.00;91.20
21108;DHT22;10712;52.944;9.098;2022-11-20T05:16:10;1.00;91.20
21108;DHT22;10712;52.944;9.098;2022-11-20T05:18:41;1.00;91.20
21108;DHT22;10712;52.944;9.098;2022-11-20T05:21:09;1.00;91.20
21108;DHT22;10712;52.944;9.098;2022-11-20T05:23:35;1.00;90.90
21108;DHT22;10712;52.944;9.098;2022-11-20T05:26:02;1.00;90.90
21108;DHT22;10712;52.944;9.098;2022-11-20T05:28:30;1.00;90.80
21108;DHT22;10712;52.944;9.098;2022-11-20T05:31:04;1.00;90.80
21108;DHT22;10712;52.944;9.098;2022-11-20T05:33:35;0.90;90.70
21108;DHT22;10712;52.944;9.098;2022-11-20T05:36:04;0.90;90.80
21108;DHT22;10712;52.944;9.098;2022-11-20T05:38:31;0.90;90.90
21108;DHT22;10712;52.944;9.098;2022-11-20T05:41:10;0.90;91.00
21108;DHT22;10712;52.944;9.098;2022-11-20T05:43:40;0.90;91.10
21108;DHT22;10712;52.944;9.098;2022-11-20T05:46:08;0.90;91.20
21108;DHT22;10712;52.944;9.098;2022-11-20T05:48:37;0.90;91.40
21108;DHT22;10712;52.944;9.098;2022-11-20T05:51:07;0.90;91.40
21108;DHT22;10712;52.944;9.098;2022-11-20T05:53:35;0.90;91.40
21108;DHT22;10712;52.944;9.098;2022-11-20T05:58:37;1.00;91.30
21108;DHT22;10712;52.944;9.098;2022-11-20T06:01:09;1.00;91.30
21108;DHT22;10712;52.944;9.098;2022-11-20T06:03:39;1.00;91.30
21108;DHT22;10712;52.944;9.098;2022-11-20T06:06:06;1.00;91.30
21108;DHT22;10712;52.944;9.098;2022-11-20T06:08:32;1.00;91.30
21108;DHT22;10712;52.944;9.098;2022-11-20T06:11:03;1.00;91.00
21108;DHT22;10712;52.944;9.098;2022-11-20T06:13:30;1.00;90.80
21108;DHT22;10712;52.944;9.098;2022-11-20T06:15:56;1.00;90.80
21108;DHT22;10712;52.944;9.098;2022-11-20T06:18:22;1.00;90.80
21108;DHT22;10712;52.944;9.098;2022-11-20T06:20:47;1.10;90.80
21108;DHT22;10712;52.944;9.098;2022-11-20T06:23:13;1.10;90.70
21108;DHT22;10712;52.944;9.098;2022-11-20T06:25:40;1.10;90.70
21108;DHT22;10712;52.944;9.098;2022-11-20T06:28:07;1.10;90.70
21108;DHT22;10712;52.944;9.098;2022-11-20T06:30:34;1.10;90.60
21108;DHT22;10712;52.944;9.098;2022-11-20T06:33:01;1.10;90.40
21108;DHT22;10712;52.944;9.098;2022-11-20T06:35:27;1.10;90.30
21108;DHT22;10712;52.944;9.098;2022-11-20T06:37:53;1.10;90.30
21108;DHT22;10712;52.944;9.098;2022-11-20T06:40:19;1.10;90.30
21108;DHT22;10712;52.944;9.098;2022-11-20T06:42:45;1.10;90.30
21108;DHT22;10712;52.944;9.098;2022-11-20T06:45:10;1.10;90.10
21108;DHT22;10712;52.944;9.098;2022-11-20T06:47:36;1.10;90.10
21108;DHT22;10712;52.944;9.098;2022-11-20T06:50:02;1.10;90.00
21108;DHT22;10712;52.944;9.098;2022-11-20T06:52:28;1.10;89.90
21108;DHT22;10712;52.944;9.098;2022-11-20T06:54:53;1.10;89.80
21108;DHT22;10712;52.944;9.098;2022-11-20T06:57:19;1.10;89.80
21108;DHT22;10712;52.944;9.098;2022-11-20T06:59:45;1.10;89.60
21108;DHT22;10712;52.944;9.098;2022-11-20T07:02:11;1.10;89.60
21108;DHT22;10712;52.944;9.098;2022-11-20T07:04:38;1.10;89.50
21108;DHT22;10712;52.944;9.098;2022-11-20T07:07:05;1.00;89.40
21108;DHT22;10712;52.944;9.098;2022-11-20T07:09:31;1.10;89.30
21108;DHT22;10712;52.944;9.098;2022-11-20T07:11:59;1.00;89.30
21108;DHT22;10712;52.944;9.098;2022-11-20T07:14:24;1.00;89.30
21108;DHT22;10712;52.944;9.098;2022-11-20T07:16:50;1.00;89.40
21108;DHT22;10712;52.944;9.098;2022-11-20T07:19:16;1.00;89.40
21108;DHT22;10712;52.944;9.098;2022-11-20T07:21:42;1.00;89.30
21108;DHT22;10712;52.944;9.098;2022-11-20T07:24:07;1.00;89.40
21108;DHT22;10712;52.944;9.098;2022-11-20T07:26:33;1.00;89.30
21108;DHT22;10712;52.944;9.098;2022-11-20T07:28:59;1.00;89.30
21108;DHT22;10712;52.944;9.098;2022-11-20T07:31:25;1.00;89.10
21108;DHT22;10712;52.944;9.098;2022-11-20T07:33:50;1.00;89.00
21108;DHT22;10712;52.944;9.098;2022-11-20T07:36:16;1.00;89.00
21108;DHT22;10712;52.944;9.098;2022-11-20T07:38:42;1.00;88.90
21108;DHT22;10712;52.944;9.098;2022-11-20T07:41:08;1.00;88.70
21108;DHT22;10712;52.944;9.098;2022-11-20T07:43:33;1.00;88.70
21108;DHT22;10712;52.944;9.098;2022-11-20T07:45:59;1.00;88.70
21108;DHT22;10712;52.944;9.098;2022-11-20T07:48:25;1.00;88.90
21108;DHT22;10712;52.944;9.098;2022-11-20T07:51:04;1.00;89.00
21108;DHT22;10712;52.944;9.098;2022-11-20T07:53:30;1.00;89.00
21108;DHT22;10712;52.944;9.098;2022-11-20T07:55:59;1.00;88.90
21108;DHT22;10712;52.944;9.098;2022-11-20T07:58:26;1.00;88.90
21108;DHT22;10712;52.944;9.098;2022-11-20T08:00:54;1.10;88.90
21108;DHT22;10712;52.944;9.098;2022-11-20T08:03:20;1.10;88.90
21108;DHT22;10712;52.944;9.098;2022-11-20T08:05:46;1.10;88.90
21108;DHT22;10712;52.944;9.098;2022-11-20T08:08:11;1.10;88.70
21108;DHT22;10712;52.944;9.098;2022-11-20T08:10:37;1.10;88.70
21108;DHT22;10712;52.944;9.098;2022-11-20T08:13:03;1.10;88.70
21108;DHT22;10712;52.944;9.098;2022-11-20T08:15:49;1.10;88.40
21108;DHT22;10712;52.944;9.098;2022-11-20T08:18:16;1.10;88.40
21108;DHT22;10712;52.944;9.098;2022-11-20T08:20:43;1.10;88.20
21108;DHT22;10712;52.944;9.098;2022-11-20T08:23:09;1.20;88.20
21108;DHT22;10712;52.944;9.098;2022-11-20T08:25:36;1.20;88.30
21108;DHT22;10712;52.944;9.098;2022-11-20T08:28:06;1.20;88.30
21108;DHT22;10712;52.944;9.098;2022-11-20T08:30:34;1.20;88.20
21108;DHT22;10712;52.944;9.098;2022-11-20T08:33:08;1.20;88.00
21108;DHT22;10712;52.944;9.098;2022-11-20T08:35:38;1.20;88.00
21108;DHT22;10712;52.944;9.098;2022-11-20T08:38:05;1.20;87.90
21108;DHT22;10712;52.944;9.098;2022-11-20T08:40:32;1.20;88.00
21108;DHT22;10712;52.944;9.098;2022-11-20T08:42:58;1.30;88.00
21108;DHT22;10712;52.944;9.098;2022-11-20T08:45:24;1.30;87.90
21108;DHT22;10712;52.944;9.098;2022-11-20T08:47:50;1.30;87.80
21108;DHT22;10712;52.944;9.098;2022-11-20T08:50:17;1.30;87.80
21108;DHT22;10712;52.944;9.098;2022-11-20T08:52:43;1.30;87.90
21108;DHT22;10712;52.944;9.098;2022-11-20T08:55:09;1.30;87.80
21108;DHT22;10712;52.944;9.098;2022-11-20T08:57:36;1.30;87.80
21108;DHT22;10712;52.944;9.098;2022-11-20T09:00:04;1.30;87.80
21108;DHT22;10712;52.944;9.098;2022-11-20T09:02:31;1.30;87.80
21108;DHT22;10712;52.944;9.098;2022-11-20T09:04:58;1.30;87.90
21108;DHT22;10712;52.944;9.098;2022-11-20T09:07:24;1.30;87.90
21108;DHT22;10712;52.944;9.098;2022-11-20T09:09:49;1.30;87.90
21108;DHT22;10712;52.944;9.098;2022-11-20T09:12:15;1.30;87.80
21108;DHT22;10712;52.944;9.098;2022-11-20T09:14:41;1.40;87.60
21108;DHT22;10712;52.944;9.098;2022-11-20T09:17:07;1.30;87.70
21108;DHT22;10712;52.944;9.098;2022-11-20T09:19:33;1.40;87.60
21108;DHT22;10712;52.944;9.098;2022-11-20T09:21:59;1.40;87.60
21108;DHT22;10712;52.944;9.098;2022-11-20T09:24:26;1.40;87.50
21108;DHT22;10712;52.944;9.098;2022-11-20T09:26:53;1.40;87.60
21108;DHT22;10712;52.944;9.098;2022-11-20T09:29:18;1.40;87.60
21108;DHT22;10712;52.944;9.098;2022-11-20T09:31:44;1.40;87.60
21108;DHT22;10712;52.944;9.098;2022-11-20T09:34:10;1.40;87.50
21108;DHT22;10712;52.944;9.098;2022-11-20T09:36:36;1.40;87.40
21108;DHT22;10712;52.944;9.098;2022-11-20T09:39:02;1.40;87.50
21108;DHT22;10712;52.944;9.098;2022-11-20T09:44:40;1.50;87.60
21108;DHT22;10712;52.944;9.098;2022-11-20T09:47:22;1.50;87.60
21108;DHT22;10712;52.944;9.098;2022-11-20T09:50:32;1.50;87.60
21108;DHT22;10712;52.944;9.098;2022-11-20T09:53:15;1.60;87.60
21108;DHT22;10712;52.944;9.098;2022-11-20T09:55:50;1.60;87.50
21108;DHT22;10712;52.944;9.098;2022-11-20T09:58:33;1.60;87.60
21108;DHT22;10712;52.944;9.098;2022-11-20T10:01:12;1.60;87.60
21108;DHT22;10712;52.944;9.098;2022-11-20T10:06:34;1.70;87.70
21108;DHT22;10712;52.944;9.098;2022-11-20T10:14:50;1.80;87.30
21108;DHT22;10712;52.944;9.098;2022-11-20T10:17:47;1.80;86.90
21108;DHT22;10712;52.944;9.098;2022-11-20T10:26:29;1.90;86.60
21108;DHT22;10712;52.944;9.098;2022-11-20T10:29:12;1.90;86.50
21108;DHT22;10712;52.944;9.098;2022-11-20T10:31:47;1.90;86.40
21108;DHT22;10712;52.944;9.098;2022-11-20T10:34:33;1.90;86.20
21108;DHT22;10712;52.944;9.098;2022-11-20T10:37:16;1.90;86.10
21108;DHT22;10712;52.944;9.098;2022-11-20T10:42:55;1.90;85.80
21108;DHT22;10712;52.944;9.098;2022-11-20T10:56:47;1.80;86.10
21108;DHT22;10712;52.944;9.098;2022-11-20T11:02:00;1.80;86.00
21108;DHT22;10712;52.944;9.098;2022-11-20T11:07:09;1.70;86.00
21108;DHT22;10712;52.944;9.098;2022-11-20T11:09:43;1.70;86.20
21108;DHT22;10712;52.944;9.098;2022-11-20T11:12:25;1.70;86.20
21108;DHT22;10712;52.944;9.098;2022-11-20T11:14:56;1.60;86.20
21108;DHT22;10712;52.944;9.098;2022-11-20T11:17:31;1.60;86.20
21108;DHT22;10712;52.944;9.098;2022-11-20T11:19:58;1.60;86.40
21108;DHT22;10712;52.944;9.098;2022-11-20T11:22:29;1.60;86.60
21108;DHT22;10712;52.944;9.098;2022-11-20T11:24:56;1.50;86.80
21108;DHT22;10712;52.944;9.098;2022-11-20T11:27:22;1.60;87.00
21108;DHT22;10712;52.944;9.098;2022-11-20T11:29:48;1.60;86.90
21108;DHT22;10712;52.944;9.098;2022-11-20T11:32:21;1.60;87.00
21108;DHT22;10712;52.944;9.098;2022-11-20T11:35:07;1.60;87.20
21108;DHT22;10712;52.944;9.098;2022-11-20T11:37:46;1.50;87.00
21108;DHT22;10712;52.944;9.098;2022-11-20T11:40:13;1.50;87.00
21108;DHT22;10712;52.944;9.098;2022-11-20T11:42:42;1.50;87.20
21108;DHT22;10712;52.944;9.098;2022-11-20T11:45:15;1.50;87.10
21108;DHT22;10712;52.944;9.098;2022-11-20T11:55:14;1.60;87.10
21108;DHT22;10712;52.944;9.098;2022-11-20T11:57:50;1.60;86.80
21108;DHT22;10712;52.944;9.098;2022-11-20T12:00:21;1.60;87.00
21108;DHT22;10712;52.944;9.098;2022-11-20T12:03:11;1.60;86.80
21108;DHT22;10712;52.944;9.098;2022-11-20T12:05:49;1.50;87.20
21108;DHT22;10712;52.944;9.098;2022-11-20T12:08:27;1.40;87.40
21108;DHT22;10712;52.944;9.098;2022-11-20T12:14:13;1.40;88.40
21108;DHT22;10712;52.944;9.098;2022-11-20T12:17:00;1.40;88.50
21108;DHT22;10712;52.944;9.098;2022-11-20T12:19:29;1.40;88.80
21108;DHT22;10712;52.944;9.098;2022-11-20T12:24:49;1.40;89.10
21108;DHT22;10712;52.944;9.098;2022-11-20T12:31:19;1.40;89.30
21108;DHT22;10712;52.944;9.098;2022-11-20T12:37:00;1.30;89.50
21108;DHT22;10712;52.944;9.098;2022-11-20T12:39:35;1.30;89.50
21108;DHT22;10712;52.944;9.098;2022-11-20T12:45:28;1.20;89.90
21108;DHT22;10712;52.944;9.098;2022-11-20T12:51:00;1.20;90.30
21108;DHT22;10712;52.944;9.098;2022-11-20T12:57:00;1.20;90.70
21108;DHT22;10712;52.944;9.098;2022-11-20T13:06:02;1.40;90.70
21108;DHT22;10712;52.944;9.098;2022-11-20T13:08:40;1.40;90.60
21108;DHT22;10712;52.944;9.098;2022-11-20T13:11:33;1.40;90.70
21108;DHT22;10712;52.944;9.098;2022-11-20T13:17:35;1.40;90.60
21108;DHT22;10712;52.944;9.098;2022-11-20T13:20:15;1.40;90.60
21108;DHT22;10712;52.944;9.098;2022-11-20T13:22:53;1.40;90.70
21108;DHT22;10712;52.944;9.098;2022-11-20T13:25:32;1.40;90.90
21108;DHT22;10712;52.944;9.098;2022-11-20T13:28:04;1.40;91.00
21108;DHT22;10712;52.944;9.098;2022-11-20T13:30:56;1.40;91.10
21108;DHT22;10712;52.944;9.098;2022-11-20T13:33:37;1.50;91.00
21108;DHT22;10712;52.944;9.098;2022-11-20T13:36:06;1.50;90.60
21108;DHT22;10712;52.944;9.098;2022-11-20T13:38:53;1.50;90.60
21108;DHT22;10712;52.944;9.098;2022-11-20T13:43:57;1.50;90.30
21108;DHT22;10712;52.944;9.098;2022-11-20T13:46:46;1.50;90.10
21108;DHT22;10712;52.944;9.098;2022-11-20T13:49:23;1.50;89.80
21108;DHT22;10712;52.944;9.098;2022-11-20T13:52:22;1.40;89.70
21108;DHT22;10712;52.944;9.098;2022-11-20T14:01:13;1.40;89.30
21108;DHT22;10712;52.944;9.098;2022-11-20T14:03:43;1.30;89.40
21108;DHT22;10712;52.944;9.098;2022-11-20T14:06:18;1.40;89.40
21108;DHT22;10712;52.944;9.098;2022-11-20T14:08:47;1.30;89.50
21108;DHT22;10712;52.944;9.098;2022-11-20T14:11:18;1.40;89.50
21108;DHT22;10712;52.944;9.098;2022-11-20T14:16:32;1.30;89.40
21108;DHT22;10712;52.944;9.098;2022-11-20T14:21:52;1.30;89.20
21108;DHT22;10712;52.944;9.098;2022-11-20T14:24:38;1.30;89.40
21108;DHT22;10712;52.944;9.098;2022-11-20T14:27:04;1.20;89.30
21108;DHT22;10712;52.944;9.098;2022-11-20T14:29:37;1.20;89.20
21108;DHT22;10712;52.944;9.098;2022-11-20T14:32:04;1.20;89.40
21108;DHT22;10712;52.944;9.098;2022-11-20T14:34:32;1.20;89.40
21108;DHT22;10712;52.944;9.098;2022-11-20T14:37:06;1.20;89.40
21108;DHT22;10712;52.944;9.098;2022-11-20T14:39:42;1.10;89.60
21108;DHT22;10712;52.944;9.098;2022-11-20T14:42:21;1.10;89.70
21108;DHT22;10712;52.944;9.098;2022-11-20T14:44:51;1.10;89.90
21108;DHT22;10712;52.944;9.098;2022-11-20T14:47:25;1.10;89.90
21108;DHT22;10712;52.944;9.098;2022-11-20T14:49:55;1.10;90.00
21108;DHT22;10712;52.944;9.098;2022-11-20T14:52:24;1.10;90.00
21108;DHT22;10712;52.944;9.098;2022-11-20T14:54:53;1.10;89.90
21108;DHT22;10712;52.944;9.098;2022-11-20T14:59:50;1.10;89.80
21108;DHT22;10712;52.944;9.098;2022-11-20T15:02:17;1.00;89.70
21108;DHT22;10712;52.944;9.098;2022-11-20T15:04:56;1.00;89.70
21108;DHT22;10712;52.944;9.098;2022-11-20T15:07:35;1.00;89.70
21108;DHT22;10712;52.944;9.098;2022-11-20T15:10:06;0.90;89.50
21108;DHT22;10712;52.944;9.098;2022-11-20T15:12:37;0.90;89.70
21108;DHT22;10712;52.944;9.098;2022-11-20T15:15:08;0.90;89.80
21108;DHT22;10712;52.944;9.098;2022-11-20T15:17:40;0.90;89.90
21108;DHT22;10712;52.944;9.098;2022-11-20T15:20:13;0.90;90.00
21108;DHT22;10712;52.944;9.098;2022-11-20T15:22:41;0.90;90.00
21108;DHT22;10712;52.944;9.098;2022-11-20T15:25:17;0.90;90.00
21108;DHT22;10712;52.944;9.098;2022-11-20T15:27:44;0.90;90.00
21108;DHT22;10712;52.944;9.098;2022-11-20T15:30:19;0.90;90.00
21108;DHT22;10712;52.944;9.098;2022-11-20T15:32:46;0.90;89.90
21108;DHT22;10712;52.944;9.098;2022-11-20T15:35:13;0.80;89.90
21108;DHT22;10712;52.944;9.098;2022-11-20T15:37:40;0.80;89.80
21108;DHT22;10712;52.944;9.098;2022-11-20T15:40:08;0.80;89.80
21108;DHT22;10712;52.944;9.098;2022-11-20T15:42:35;0.80;89.80
21108;DHT22;10712;52.944;9.098;2022-11-20T15:45:01;0.70;89.40
21108;DHT22;10712;52.944;9.098;2022-11-20T15:47:30;0.60;89.00
21108;DHT22;10712;52.944;9.098;2022-11-20T15:49:58;0.60;89.40
21108;DHT22;10712;52.944;9.098;2022-11-20T15:52:24;0.50;89.70
21108;DHT22;10712;52.944;9.098;2022-11-20T15:54:49;0.50;89.30
21108;DHT22;10712;52.944;9.098;2022-11-20T15:57:15;0.40;89.40
21108;DHT22;10712;52.944;9.098;2022-11-20T15:59:41;0.40;89.40
21108;DHT22;10712;52.944;9.098;2022-11-20T16:02:11;0.40;89.20
21108;DHT22;10712;52.944;9.098;2022-11-20T16:04:38;0.30;89.10
21108;DHT22;10712;52.944;9.098;2022-11-20T16:07:04;0.30;89.00
21108;DHT22;10712;52.944;9.098;2022-11-20T16:09:30;0.20;89.30
21108;DHT22;10712;52.944;9.098;2022-11-20T16:11:56;0.20;89.70
21108;DHT22;10712;52.944;9.098;2022-11-20T16:14:25;0.30;89.80
21108;DHT22;10712;52.944;9.098;2022-11-20T16:17:11;0.20;89.30
21108;DHT22;10712;52.944;9.098;2022-11-20T16:19:37;0.20;89.40
21108;DHT22;10712;52.944;9.098;2022-11-20T16:22:03;0.20;89.70
21108;DHT22;10712;52.944;9.098;2022-11-20T16:24:29;0.20;89.50
21108;DHT22;10712;52.944;9.098;2022-11-20T16:26:56;0.20;89.30
21108;DHT22;10712;52.944;9.098;2022-11-20T16:29:22;0.20;89.10
21108;DHT22;10712;52.944;9.098;2022-11-20T16:31:48;0.10;89.00
21108;DHT22;10712;52.944;9.098;2022-11-20T16:34:16;0.10;88.70
21108;DHT22;10712;52.944;9.098;2022-11-20T16:36:43;0.00;88.90
21108;DHT22;10712;52.944;9.098;2022-11-20T16:39:10;0.00;89.20
21108;DHT22;10712;52.944;9.098;2022-11-20T16:41:37;0.00;89.30
21108;DHT22;10712;52.944;9.098;2022-11-20T16:44:07;-0.10;89.50
21108;DHT22;10712;52.944;9.098;2022-11-20T16:46:35;0.00;89.40
21108;DHT22;10712;52.944;9.098;2022-11-20T16:49:12;-0.10;89.40
21108;DHT22;10712;52.944;9.098;2022-11-20T16:51:38;-0.10;89.40
21108;DHT22;10712;52.944;9.098;2022-11-20T16:54:06;-0.10;89.30
21108;DHT22;10712;52.944;9.098;2022-11-20T16:56:33;-0.10;89.10
21108;DHT22;10712;52.944;9.098;2022-11-20T16:58:59;-0.10;88.90
21108;DHT22;10712;52.944;9.098;2022-11-20T17:01:27;-0.10;88.80
21108;DHT22;10712;52.944;9.098;2022-11-20T17:04:01;-0.20;88.50
21108;DHT22;10712;52.944;9.098;2022-11-20T17:06:31;-0.30;88.50
21108;DHT22;10712;52.944;9.098;2022-11-20T17:08:59;-0.30;88.60
21108;DHT22;10712;52.944;9.098;2022-11-20T17:11:26;-0.40;88.60
21108;DHT22;10712;52.944;9.098;2022-11-20T17:13:54;-0.40;88.70
21108;DHT22;10712;52.944;9.098;2022-11-20T17:16:22;-0.50;88.80
21108;DHT22;10712;52.944;9.098;2022-11-20T17:18:49;-0.50;89.20
21108;DHT22;10712;52.944;9.098;2022-11-20T17:21:16;-0.50;89.40
21108;DHT22;10712;52.944;9.098;2022-11-20T17:23:44;-0.50;89.20
21108;DHT22;10712;52.944;9.098;2022-11-20T17:26:16;-0.50;88.60
21108;DHT22;10712;52.944;9.098;2022-11-20T17:28:44;-0.60;88.40
21108;DHT22;10712;52.944;9.098;2022-11-20T17:31:14;-0.70;88.80
21108;DHT22;10712;52.944;9.098;2022-11-20T17:33:44;-0.70;89.40
21108;DHT22;10712;52.944;9.098;2022-11-20T17:36:13;-0.60;89.60
21108;DHT22;10712;52.944;9.098;2022-11-20T17:38:41;-0.60;88.90
21108;DHT22;10712;52.944;9.098;2022-11-20T17:41:12;-0.70;88.50
21108;DHT22;10712;52.944;9.098;2022-11-20T17:43:43;-0.80;88.70
21108;DHT22;10712;52.944;9.098;2022-11-20T17:46:17;-0.80;89.40
21108;DHT22;10712;52.944;9.098;2022-11-20T17:48:46;-0.70;89.70